Time;durP1;ratioP1;P1;durP2;ratioP2;P2;SDS_P1;SDS_P2;PMS_P1;PMS_P2;Temp;Humidity;BMP_temperature;BMP_pressure;BME280_temperature;BME280_humidity;BME280_pressure;Samples;Min_cycle;Max_cycle;Signal;HPM_P1;HPM_P2
2022/09/11 00:01:39;;;;;;;4.67;3.47;;;16.10;99.90;;;;;;5047815;28;20242;-72
2022/09/11 00:04:06;;;;;;;4.37;3.97;;;16.20;99.90;;;;;;5042477;28;20966;-71
2022/09/11 00:06:32;;;;;;;5.23;4.17;;;16.10;99.90;;;;;;5042414;28;20273;-71
2022/09/11 00:09:00;;;;;;;4.40;4.00;;;16.10;99.90;;;;;;5042898;28;20470;-71
2022/09/11 00:11:29;;;;;;;4.33;3.97;;;16.10;99.90;;;;;;5032179;28;20452;-71
2022/09/11 00:13:55;;;;;;;5.07;4.20;;;16.10;99.90;;;;;;5037979;28;20480;-72
2022/09/11 00:16:32;;;;;;;5.13;4.63;;;16.10;99.90;;;;;;5045008;28;20447;-71
2022/09/11 00:19:00;;;;;;;3.97;3.63;;;16.10;99.90;;;;;;5045885;28;20457;-72
2022/09/11 00:21:26;;;;;;;7.43;4.50;;;16.10;99.90;;;;;;5045229;28;20886;-71
2022/09/11 00:23:52;;;;;;;5.33;4.43;;;16.10;99.90;;;;;;5043659;28;20459;-71
2022/09/11 00:26:19;;;;;;;3.70;3.40;;;16.10;99.90;;;;;;5044628;28;21024;-72
2022/09/11 00:28:46;;;;;;;5.87;5.27;;;16.10;99.90;;;;;;5030310;28;20215;-71
2022/09/11 00:31:16;;;;;;;5.00;4.53;;;16.10;99.90;;;;;;5042864;28;20508;-71
2022/09/11 00:33:43;;;;;;;5.60;4.83;;;16.10;99.90;;;;;;5043762;28;20826;-71
2022/09/11 00:36:15;;;;;;;6.40;4.60;;;16.10;99.90;;;;;;5059434;28;20453;-71
2022/09/11 00:38:41;;;;;;;7.13;5.30;;;16.10;99.90;;;;;;5038929;28;20555;-71
2022/09/11 00:41:14;;;;;;;6.83;5.13;;;16.00;99.90;;;;;;5045710;28;20477;-72
2022/09/11 00:43:55;;;;;;;6.53;5.93;;;16.10;99.90;;;;;;5042130;28;20974;-71
2022/09/11 00:46:25;;;;;;;5.20;4.70;;;16.10;99.90;;;;;;5034682;28;20449;-73
2022/09/11 00:48:51;;;;;;;5.30;4.57;;;16.10;99.90;;;;;;5044926;28;20921;-72
2022/09/11 00:51:23;;;;;;;4.60;4.20;;;16.10;99.90;;;;;;5058102;28;20447;-71
2022/09/11 00:53:51;;;;;;;5.10;4.40;;;16.10;99.90;;;;;;5041959;28;20458;-72
2022/09/11 00:56:18;;;;;;;5.97;5.37;;;16.10;99.90;;;;;;5042802;28;20455;-73
2022/09/11 00:58:47;;;;;;;7.30;6.43;;;16.10;99.90;;;;;;5043912;28;21034;-72
2022/09/11 01:01:13;;;;;;;6.87;6.27;;;16.10;99.90;;;;;;5044755;28;20876;-72
2022/09/11 01:03:40;;;;;;;7.83;5.50;;;16.10;99.90;;;;;;5045947;28;20961;-73
2022/09/11 01:06:08;;;;;;;5.97;5.43;;;16.10;99.90;;;;;;5027254;28;20446;-73
2022/09/11 01:08:34;;;;;;;7.13;5.50;;;16.10;99.90;;;;;;5028725;28;20545;-71
2022/09/11 01:11:18;;;;;;;5.67;5.10;;;16.10;99.90;;;;;;5044345;28;20537;-74
2022/09/11 01:13:56;;;;;;;6.63;5.97;;;16.00;99.90;;;;;;5036579;28;20589;-71
2022/09/11 01:16:36;;;;;;;5.33;4.83;;;16.10;99.90;;;;;;5043102;28;20523;-73
2022/09/11 01:19:33;;;;;;;5.93;4.97;;;16.10;99.90;;;;;;5046471;28;22711;-71
2022/09/11 01:22:34;;;;;;;6.10;5.50;;;16.10;99.90;;;;;;5036577;28;20517;-73
2022/09/11 01:25:17;;;;;;;9.07;6.20;;;16.10;99.90;;;;;;5037139;28;20462;-72
2022/09/11 01:27:54;;;;;;;7.60;5.87;;;16.10;99.90;;;;;;5028367;28;20457;-72
2022/09/11 01:30:34;;;;;;;6.97;6.27;;;16.10;99.90;;;;;;5035982;28;20447;-72
2022/09/11 01:33:07;;;;;;;8.80;6.70;;;16.10;99.90;;;;;;5049387;28;20553;-71
2022/09/11 01:35:43;;;;;;;6.63;6.00;;;16.10;99.90;;;;;;5060110;28;20893;-72
2022/09/11 01:38:38;;;;;;;5.87;5.27;;;16.10;99.90;;;;;;5057781;28;20450;-72
2022/09/11 01:41:14;;;;;;;7.97;7.10;;;16.10;99.90;;;;;;5025352;28;20939;-72
2022/09/11 01:44:05;;;;;;;8.90;6.90;;;16.10;99.90;;;;;;5034359;28;20945;-72
2022/09/11 01:46:41;;;;;;;8.83;7.87;;;16.10;99.90;;;;;;5042014;28;20443;-72
2022/09/11 01:49:30;;;;;;;9.77;6.47;;;16.10;99.90;;;;;;5025229;28;20459;-72
2022/09/11 01:52:02;;;;;;;8.63;7.03;;;16.10;99.90;;;;;;5041026;28;20458;-72
2022/09/11 01:54:41;;;;;;;8.80;7.53;;;16.10;99.90;;;;;;5063072;28;20463;-72
2022/09/11 01:57:33;;;;;;;7.70;6.90;;;16.10;99.90;;;;;;5057836;28;20450;-72
2022/09/11 02:00:02;;;;;;;7.03;5.77;;;16.10;99.90;;;;;;5057983;28;20458;-72
2022/09/11 02:02:35;;;;;;;6.70;6.03;;;16.10;99.90;;;;;;5045603;28;20454;-71
2022/09/11 02:05:14;;;;;;;8.33;7.40;;;16.10;99.90;;;;;;5044600;28;20455;-72
2022/09/11 02:07:53;;;;;;;7.30;6.60;;;16.10;99.90;;;;;;5038745;28;20553;-71
2022/09/11 02:10:28;;;;;;;7.60;6.73;;;16.10;99.90;;;;;;5047003;28;20541;-71
2022/09/11 02:13:10;;;;;;;7.17;6.00;;;16.10;99.90;;;;;;5032231;28;20458;-72
2022/09/11 02:15:48;;;;;;;6.53;5.83;;;16.10;99.90;;;;;;5028893;28;20467;-72
2022/09/11 02:18:23;;;;;;;5.90;5.30;;;16.10;99.90;;;;;;5063246;28;20474;-72
2022/09/11 02:20:50;;;;;;;6.50;5.80;;;16.10;99.90;;;;;;5047485;28;20450;-72
2022/09/11 02:23:16;;;;;;;7.03;5.83;;;16.10;99.90;;;;;;5044587;28;20524;-73
2022/09/11 02:25:42;;;;;;;6.07;5.47;;;16.10;99.90;;;;;;5035360;28;20465;-73
2022/09/11 02:28:08;;;;;;;6.63;5.60;;;16.10;99.90;;;;;;5030663;28;20477;-72
2022/09/11 02:30:35;;;;;;;5.23;4.73;;;16.10;99.90;;;;;;5049667;28;20511;-72
2022/09/11 02:33:01;;;;;;;5.20;4.70;;;16.10;99.90;;;;;;5035328;28;20462;-71
2022/09/11 02:35:39;;;;;;;5.17;4.73;;;16.10;99.90;;;;;;5060487;28;20461;-71
2022/09/11 02:38:21;;;;;;;5.50;4.87;;;16.20;99.90;;;;;;5043569;28;20251;-72
2022/09/11 02:41:13;;;;;;;6.03;5.43;;;16.20;99.90;;;;;;5047504;28;20452;-72
2022/09/11 02:43:57;;;;;;;6.77;6.10;;;16.20;99.90;;;;;;5046956;28;21033;-72
2022/09/11 02:46:51;;;;;;;5.83;5.27;;;16.20;99.90;;;;;;5064056;28;20529;-72
2022/09/11 02:49:32;;;;;;;4.90;4.50;;;16.20;99.90;;;;;;5047737;28;20509;-72
2022/09/11 02:52:24;;;;;;;6.27;4.33;;;16.20;99.90;;;;;;5040540;28;20540;-72
2022/09/11 02:55:14;;;;;;;6.43;5.83;;;16.20;99.90;;;;;;5040237;28;20558;-72
2022/09/11 02:58:01;;;;;;;6.43;5.30;;;16.20;99.90;;;;;;5047624;28;20473;-71
2022/09/11 03:00:29;;;;;;;5.60;5.10;;;16.20;99.90;;;;;;5045962;28;20544;-72
2022/09/11 03:02:55;;;;;;;6.50;5.90;;;16.20;99.90;;;;;;5036957;28;21014;-71
2022/09/11 03:05:22;;;;;;;9.30;6.47;;;16.20;99.90;;;;;;5047377;28;20542;-72
2022/09/11 03:07:48;;;;;;;5.33;4.50;;;16.20;99.90;;;;;;5063099;28;20745;-72
2022/09/11 03:10:13;;;;;;;6.80;5.90;;;16.20;99.90;;;;;;5046432;28;20450;-72
2022/09/11 03:12:40;;;;;;;7.27;5.93;;;16.20;99.90;;;;;;5030532;28;20318;-73
2022/09/11 03:15:09;;;;;;;8.73;6.53;;;16.20;99.90;;;;;;5026693;28;20231;-72
2022/09/11 03:17:35;;;;;;;7.00;6.30;;;16.20;99.90;;;;;;5042085;28;20512;-72
2022/09/11 03:20:02;;;;;;;6.90;6.20;;;16.20;99.90;;;;;;5030911;28;20450;-71
2022/09/11 03:22:28;;;;;;;8.43;6.60;;;16.20;99.90;;;;;;5041372;28;20454;-72
2022/09/11 03:24:54;;;;;;;9.37;7.27;;;16.20;99.90;;;;;;5036260;28;20462;-70
2022/09/11 03:27:22;;;;;;;7.57;6.87;;;16.20;99.90;;;;;;5034339;28;20215;-73
2022/09/11 03:29:48;;;;;;;9.10;6.87;;;16.20;99.90;;;;;;5036413;28;20522;-71
2022/09/11 03:32:15;;;;;;;8.40;7.13;;;16.20;99.90;;;;;;5046628;28;20454;-72
2022/09/11 03:34:40;;;;;;;11.23;9.17;;;16.20;99.90;;;;;;5045593;28;20467;-72
2022/09/11 03:37:07;;;;;;;12.00;8.20;;;16.20;99.90;;;;;;5046426;28;20965;-72
2022/09/11 03:39:33;;;;;;;10.20;9.10;;;16.20;99.90;;;;;;5045384;28;20596;-71
2022/09/11 03:41:59;;;;;;;9.00;8.10;;;16.20;99.90;;;;;;5048490;28;20475;-73
2022/09/11 03:44:26;;;;;;;12.40;8.87;;;16.10;99.90;;;;;;5028290;28;20516;-71
2022/09/11 03:46:52;;;;;;;10.40;8.40;;;16.10;99.90;;;;;;5013366;28;20504;-70
2022/09/11 03:49:19;;;;;;;13.17;9.47;;;16.10;99.90;;;;;;5035895;28;20455;-71
2022/09/11 03:51:46;;;;;;;10.07;8.50;;;16.10;99.90;;;;;;5025816;28;20455;-74
2022/09/11 03:54:14;;;;;;;9.73;8.73;;;16.10;99.90;;;;;;5042369;28;20462;-72
2022/09/11 03:56:39;;;;;;;11.00;8.90;;;16.10;99.90;;;;;;5047048;28;20526;-71
2022/09/11 03:59:05;;;;;;;9.30;7.37;;;16.10;99.90;;;;;;5045864;28;21056;-72
2022/09/11 04:01:34;;;;;;;9.47;8.47;;;16.10;99.90;;;;;;5043073;28;20350;-72
2022/09/11 04:04:00;;;;;;;8.73;7.43;;;16.10;99.90;;;;;;5044339;28;20454;-72
2022/09/11 04:06:32;;;;;;;7.63;6.93;;;16.10;99.90;;;;;;5026568;28;20459;-73
2022/09/11 04:08:58;;;;;;;7.60;6.80;;;16.10;99.90;;;;;;5045565;28;20462;-71
2022/09/11 04:11:24;;;;;;;10.83;7.00;;;16.10;99.90;;;;;;5056580;28;20444;-72
2022/09/11 04:13:50;;;;;;;7.80;6.90;;;16.10;99.90;;;;;;5044435;28;20220;-71
2022/09/11 04:16:18;;;;;;;7.60;6.80;;;16.10;99.90;;;;;;5029742;28;20530;-72
2022/09/11 04:18:48;;;;;;;9.00;6.50;;;16.10;99.90;;;;;;5046439;28;20455;-71
2022/09/11 04:21:17;;;;;;;7.57;6.77;;;16.10;99.90;;;;;;5052119;28;20525;-71
2022/09/11 04:23:49;;;;;;;7.33;6.57;;;16.10;99.90;;;;;;5028020;28;20454;-72
2022/09/11 04:26:18;;;;;;;9.40;7.40;;;16.10;99.90;;;;;;5033323;28;20616;-71
2022/09/11 04:28:47;;;;;;;7.33;6.63;;;16.10;99.90;;;;;;5040108;28;20468;-71
2022/09/11 04:31:14;;;;;;;9.17;7.43;;;16.10;99.90;;;;;;5027145;28;20467;-72
2022/09/11 04:33:40;;;;;;;8.43;7.53;;;16.10;99.90;;;;;;5037276;28;20885;-72
2022/09/11 04:36:08;;;;;;;8.77;7.87;;;16.10;99.90;;;;;;5045174;28;20460;-72
2022/09/11 04:38:35;;;;;;;10.30;8.00;;;16.10;99.90;;;;;;5024021;28;21025;-71
2022/09/11 04:41:03;;;;;;;11.10;8.80;;;16.10;99.90;;;;;;5045512;28;20551;-71
2022/09/11 04:43:37;;;;;;;11.70;9.10;;;16.10;99.90;;;;;;5045265;28;20518;-71
2022/09/11 04:46:04;;;;;;;11.27;8.10;;;16.10;99.90;;;;;;5045973;28;21024;-71
2022/09/11 04:48:30;;;;;;;10.17;8.27;;;16.10;99.90;;;;;;5044968;28;20446;-72
2022/09/11 04:51:04;;;;;;;11.27;8.30;;;16.10;99.90;;;;;;5041037;28;20451;-72
2022/09/11 04:53:31;;;;;;;9.10;7.10;;;16.10;99.90;;;;;;5026402;28;20595;-72
2022/09/11 04:56:02;;;;;;;9.30;6.97;;;16.10;99.90;;;;;;5036276;28;20814;-72
2022/09/11 04:58:29;;;;;;;8.70;6.97;;;16.10;99.90;;;;;;5045261;28;21000;-71
2022/09/11 05:00:55;;;;;;;9.60;7.30;;;16.10;99.90;;;;;;5042482;28;20466;-73
2022/09/11 05:03:20;;;;;;;8.20;7.40;;;16.00;99.90;;;;;;5044592;28;20446;-70
2022/09/11 05:05:46;;;;;;;9.47;7.87;;;16.10;99.90;;;;;;5043712;28;20235;-72
2022/09/11 05:08:12;;;;;;;10.77;7.03;;;16.10;99.90;;;;;;5044533;28;20303;-72
2022/09/11 05:10:38;;;;;;;11.90;7.80;;;16.10;99.90;;;;;;5027775;28;20610;-72
2022/09/11 05:13:04;;;;;;;10.47;8.23;;;16.10;99.90;;;;;;5037673;28;20219;-71
2022/09/11 05:15:30;;;;;;;9.60;7.30;;;16.10;99.90;;;;;;5044099;28;20472;-71
2022/09/11 05:17:56;;;;;;;9.23;7.57;;;16.10;99.90;;;;;;5060053;28;20554;-72
2022/09/11 05:20:23;;;;;;;11.40;9.20;;;16.10;99.90;;;;;;5028957;28;20255;-72
2022/09/11 05:22:49;;;;;;;10.33;8.37;;;16.10;99.90;;;;;;5040001;28;20866;-72
2022/09/11 05:25:17;;;;;;;11.33;7.97;;;16.10;99.90;;;;;;5046587;28;20219;-71
2022/09/11 05:27:43;;;;;;;12.13;7.93;;;16.10;99.90;;;;;;5042319;28;20493;-72
2022/09/11 05:30:09;;;;;;;7.60;6.40;;;16.10;99.90;;;;;;5058741;28;21027;-70
2022/09/11 05:32:35;;;;;;;7.90;7.10;;;16.10;99.90;;;;;;5061093;28;20234;-72
2022/09/11 05:35:01;;;;;;;6.93;6.23;;;16.10;99.90;;;;;;5041705;28;20862;-71
2022/09/11 05:37:27;;;;;;;6.63;6.00;;;16.10;99.90;;;;;;5048217;28;20301;-72
2022/09/11 05:39:53;;;;;;;6.17;5.57;;;16.10;99.90;;;;;;5030726;28;20238;-71
2022/09/11 05:42:19;;;;;;;8.03;7.23;;;16.10;99.90;;;;;;5040595;28;20455;-72
2022/09/11 05:44:50;;;;;;;6.97;6.00;;;16.10;99.90;;;;;;5043490;28;20633;-71
2022/09/11 05:47:15;;;;;;;7.60;5.80;;;16.10;99.90;;;;;;5046360;28;20469;-72
2022/09/11 05:49:44;;;;;;;6.90;6.20;;;16.10;99.90;;;;;;5038451;28;20244;-72
2022/09/11 05:52:09;;;;;;;6.20;5.57;;;16.10;99.90;;;;;;5029960;28;20519;-72
2022/09/11 05:54:36;;;;;;;6.53;5.77;;;16.20;99.90;;;;;;5047627;28;20736;-72
2022/09/11 05:57:03;;;;;;;7.00;6.03;;;16.20;99.90;;;;;;5064549;28;20442;-71
2022/09/11 05:59:31;;;;;;;6.13;5.53;;;16.20;99.90;;;;;;5048621;28;20462;-71
2022/09/11 06:01:57;;;;;;;6.77;6.07;;;16.20;99.90;;;;;;5034036;28;20566;-73
2022/09/11 06:04:34;;;;;;;7.37;6.10;;;16.20;99.90;;;;;;5063878;28;21109;-71
2022/09/11 06:07:00;;;;;;;7.57;6.70;;;16.20;99.90;;;;;;5048712;28;20466;-70
2022/09/11 06:09:27;;;;;;;7.47;6.80;;;16.30;99.90;;;;;;5061634;28;20285;-72
2022/09/11 06:11:53;;;;;;;6.93;5.87;;;16.20;99.90;;;;;;5042835;28;20455;-71
2022/09/11 06:14:20;;;;;;;10.20;7.93;;;16.30;99.90;;;;;;5051790;28;20228;-73
2022/09/11 06:16:47;;;;;;;9.00;6.57;;;16.30;99.90;;;;;;5047404;28;20219;-71
2022/09/11 06:19:14;;;;;;;12.43;8.33;;;16.30;99.90;;;;;;5048123;28;20883;-71
2022/09/11 06:21:39;;;;;;;9.80;7.93;;;16.30;99.90;;;;;;5048749;28;20459;-72
2022/09/11 06:24:14;;;;;;;10.40;8.10;;;16.40;99.90;;;;;;5053005;28;20224;-71
2022/09/11 06:26:40;;;;;;;11.67;8.83;;;16.40;99.90;;;;;;5048490;28;20470;-72
2022/09/11 06:29:06;;;;;;;10.20;7.50;;;16.40;99.90;;;;;;5056406;28;20591;-71
2022/09/11 06:31:35;;;;;;;10.37;8.93;;;16.40;99.90;;;;;;5048899;28;20489;-72
2022/09/11 06:34:00;;;;;;;11.27;7.70;;;16.50;99.90;;;;;;5040957;28;20501;-71
2022/09/11 06:36:26;;;;;;;10.17;7.27;;;16.40;99.90;;;;;;5046546;28;20220;-73
2022/09/11 06:38:54;;;;;;;8.00;7.20;;;16.50;99.90;;;;;;5045975;28;20861;-71
2022/09/11 06:41:23;;;;;;;14.40;8.37;;;16.50;99.90;;;;;;5041618;28;20520;-71
2022/09/11 06:43:52;;;;;;;9.30;6.53;;;16.50;99.90;;;;;;5041610;28;20450;-72
2022/09/11 06:46:20;;;;;;;10.27;7.60;;;16.60;99.90;;;;;;5045355;28;20475;-72
2022/09/11 06:48:49;;;;;;;10.53;8.20;;;16.60;99.90;;;;;;5047163;28;20451;-72
2022/09/11 06:51:18;;;;;;;13.50;7.10;;;16.60;99.90;;;;;;5047737;28;20500;-72
2022/09/11 06:53:46;;;;;;;12.93;6.90;;;16.60;99.90;;;;;;5026143;28;20462;-71
2022/09/11 06:56:14;;;;;;;10.10;7.60;;;16.60;99.90;;;;;;5045112;28;20442;-72
2022/09/11 06:58:42;;;;;;;12.20;7.00;;;16.60;99.90;;;;;;5029281;28;20927;-72
2022/09/11 07:01:11;;;;;;;10.83;7.60;;;16.60;99.90;;;;;;5046487;28;20443;-72
2022/09/11 07:03:43;;;;;;;7.80;6.97;;;16.60;99.90;;;;;;5045544;28;20447;-71
2022/09/11 07:06:10;;;;;;;11.67;7.83;;;16.60;99.90;;;;;;5046691;28;20587;-71
2022/09/11 07:08:39;;;;;;;8.43;7.50;;;16.60;99.90;;;;;;5037031;28;20534;-73
2022/09/11 07:11:07;;;;;;;8.57;6.90;;;16.60;99.90;;;;;;5056831;28;20588;-71
2022/09/11 07:13:35;;;;;;;10.10;7.30;;;16.60;99.90;;;;;;5035935;28;20451;-72
2022/09/11 07:16:02;;;;;;;9.53;7.67;;;16.60;99.90;;;;;;5029843;28;20439;-72
2022/09/11 07:18:37;;;;;;;8.17;7.33;;;16.70;99.90;;;;;;5046884;28;20474;-72
2022/09/11 07:21:16;;;;;;;8.03;7.10;;;16.70;99.90;;;;;;5039457;28;20447;-73
2022/09/11 07:23:48;;;;;;;6.70;5.90;;;16.70;99.90;;;;;;5051438;28;20778;-72
2022/09/11 07:26:15;;;;;;;8.53;6.10;;;16.70;99.90;;;;;;5043668;28;20540;-70
2022/09/11 07:28:43;;;;;;;9.00;7.90;;;16.70;99.90;;;;;;5045039;28;20553;-72
2022/09/11 07:31:14;;;;;;;9.93;7.13;;;16.70;99.90;;;;;;5045042;28;20530;-72
2022/09/11 07:33:45;;;;;;;9.07;7.23;;;16.80;99.90;;;;;;5027111;28;20977;-71
2022/09/11 07:36:13;;;;;;;8.20;7.07;;;16.80;99.90;;;;;;5031507;28;20542;-72
2022/09/11 07:38:43;;;;;;;7.13;6.40;;;16.80;99.90;;;;;;5041082;28;20451;-72
2022/09/11 07:41:17;;;;;;;10.77;6.67;;;16.80;99.90;;;;;;5043030;28;20447;-72
2022/09/11 07:43:50;;;;;;;10.77;7.50;;;16.90;99.90;;;;;;5042247;28;20466;-72
2022/09/11 07:46:16;;;;;;;7.93;6.70;;;16.90;99.90;;;;;;5040760;28;20966;-71
2022/09/11 07:48:42;;;;;;;7.70;6.90;;;16.90;99.90;;;;;;5045498;28;20977;-71
2022/09/11 07:51:14;;;;;;;8.67;6.63;;;16.90;99.90;;;;;;5045962;28;20446;-72
2022/09/11 07:53:48;;;;;;;8.77;7.90;;;16.90;99.90;;;;;;5026747;28;20504;-70
2022/09/11 07:56:17;;;;;;;9.03;6.90;;;16.90;99.90;;;;;;5043708;28;20815;-72
2022/09/11 07:58:44;;;;;;;11.73;6.90;;;16.90;99.90;;;;;;5040665;28;21006;-73
2022/09/11 08:01:16;;;;;;;7.50;6.70;;;16.90;99.90;;;;;;5038242;28;20439;-72
2022/09/11 08:03:42;;;;;;;9.33;7.40;;;17.00;99.90;;;;;;5044454;28;20447;-72
2022/09/11 08:06:15;;;;;;;9.50;7.50;;;17.00;99.90;;;;;;5044745;28;20455;-71
2022/09/11 08:08:44;;;;;;;7.90;6.17;;;17.00;99.90;;;;;;5040165;28;20454;-71
2022/09/11 08:11:16;;;;;;;9.50;6.47;;;17.00;99.90;;;;;;5044028;28;20446;-72
2022/09/11 08:13:49;;;;;;;8.27;6.73;;;17.00;99.90;;;;;;5043145;28;20529;-72
2022/09/11 08:16:16;;;;;;;7.10;6.40;;;17.00;99.90;;;;;;5041412;28;20451;-72
2022/09/11 08:18:42;;;;;;;7.70;6.90;;;17.10;99.90;;;;;;5045592;28;20450;-72
2022/09/11 08:21:09;;;;;;;7.57;6.77;;;17.10;99.90;;;;;;5045620;28;20970;-71
2022/09/11 08:23:39;;;;;;;7.03;6.33;;;17.10;99.90;;;;;;5039164;28;20565;-72
2022/09/11 08:26:07;;;;;;;8.83;6.67;;;17.20;99.90;;;;;;5043171;28;20960;-72
2022/09/11 08:28:35;;;;;;;8.97;7.03;;;17.20;99.90;;;;;;5051443;28;21037;-72
2022/09/11 08:31:03;;;;;;;7.37;6.40;;;17.30;99.90;;;;;;5031637;28;20456;-71
2022/09/11 08:33:30;;;;;;;11.03;8.20;;;17.30;99.90;;;;;;5043675;28;20446;-72
2022/09/11 08:36:01;;;;;;;13.63;7.60;;;17.40;99.90;;;;;;5044035;28;20841;-72
2022/09/11 08:38:28;;;;;;;9.57;7.53;;;17.40;99.90;;;;;;5045461;28;20459;-73
2022/09/11 08:40:57;;;;;;;11.60;8.07;;;17.40;99.90;;;;;;5042485;28;20824;-72
2022/09/11 08:43:32;;;;;;;14.47;9.10;;;17.50;99.90;;;;;;5044760;28;20511;-73
2022/09/11 08:46:04;;;;;;;11.10;8.70;;;17.50;99.90;;;;;;5023425;28;20546;-72
2022/09/11 08:48:51;;;;;;;8.93;7.27;;;17.60;99.90;;;;;;5027906;28;20847;-73
2022/09/11 08:51:18;;;;;;;9.20;7.63;;;17.60;99.90;;;;;;5041199;28;20497;-72
2022/09/11 08:53:45;;;;;;;10.17;7.20;;;17.60;99.90;;;;;;5033939;28;20481;-73
2022/09/11 08:56:17;;;;;;;9.57;7.40;;;17.70;99.90;;;;;;5035346;28;20457;-72
2022/09/11 08:59:15;;;;;;;10.43;8.90;;;17.70;99.90;;;;;;5024756;28;20534;-73
2022/09/11 09:01:45;;;;;;;9.57;7.53;;;17.70;99.90;;;;;;5044859;28;20934;-73
2022/09/11 09:04:44;;;;;;;8.83;7.07;;;17.80;99.90;;;;;;5034091;28;20462;-72
2022/09/11 09:07:30;;;;;;;8.80;7.00;;;17.90;99.90;;;;;;5041545;28;20454;-71
2022/09/11 09:10:35;;;;;;;8.40;7.27;;;18.00;99.90;;;;;;5042599;28;20459;-72
2022/09/11 09:13:19;;;;;;;9.67;6.63;;;18.00;99.90;;;;;;5040880;28;20473;-71
2022/09/11 09:15:57;;;;;;;12.90;9.17;;;18.10;99.90;;;;;;5050971;28;20554;-73
2022/09/11 09:18:30;;;;;;;7.53;6.73;;;18.30;99.90;;;;;;5025829;28;20923;-73
2022/09/11 09:21:01;;;;;;;6.73;6.03;;;18.40;99.90;;;;;;5044657;28;20490;-72
2022/09/11 09:23:34;;;;;;;9.67;7.20;;;18.40;99.90;;;;;;5044512;28;20457;-71
2022/09/11 09:26:00;;;;;;;9.00;7.80;;;18.50;99.90;;;;;;5023076;28;20475;-71
2022/09/11 09:28:49;;;;;;;10.93;7.27;;;18.60;99.90;;;;;;5047311;28;20512;-73
2022/09/11 09:31:19;;;;;;;9.13;7.03;;;18.60;99.90;;;;;;5029027;28;20227;-71
2022/09/11 09:33:59;;;;;;;8.53;7.10;;;18.80;99.90;;;;;;5042861;28;21157;-73
2022/09/11 09:36:42;;;;;;;10.97;7.60;;;18.90;99.90;;;;;;5043423;28;20469;-71
2022/09/11 09:39:13;;;;;;;10.43;8.00;;;19.00;99.90;;;;;;5044891;28;20537;-72
2022/09/11 09:42:32;;;;;;;9.13;8.03;;;19.10;99.90;;;;;;5039934;28;20451;-72
2022/09/11 09:45:17;;;;;;;8.73;7.83;;;19.10;99.90;;;;;;4989967;28;21027;-72
2022/09/11 09:47:44;;;;;;;10.73;7.10;;;19.20;99.90;;;;;;5036834;28;20973;-73
2022/09/11 09:50:27;;;;;;;7.80;6.87;;;19.20;99.90;;;;;;5028035;28;21016;-71
2022/09/11 09:52:56;;;;;;;8.47;6.97;;;19.30;99.90;;;;;;5039405;28;20490;-73
2022/09/11 09:55:22;;;;;;;9.23;6.53;;;19.30;99.90;;;;;;5043953;28;20516;-73
2022/09/11 09:57:50;;;;;;;7.73;6.17;;;19.40;99.90;;;;;;5044164;28;20484;-72
2022/09/11 10:00:18;;;;;;;9.80;6.90;;;19.40;99.90;;;;;;5027799;28;20227;-73
2022/09/11 10:02:52;;;;;;;6.90;6.20;;;19.40;99.90;;;;;;5044547;28;20486;-73
2022/09/11 10:05:33;;;;;;;8.07;7.10;;;19.40;99.90;;;;;;5044957;28;20485;-74
2022/09/11 10:08:18;;;;;;;6.57;5.80;;;19.50;99.90;;;;;;5044845;28;20466;-73
2022/09/11 10:10:56;;;;;;;10.60;7.30;;;19.50;99.90;;;;;;5043135;28;20561;-73
2022/09/11 10:13:27;;;;;;;8.27;7.13;;;19.60;99.90;;;;;;5047903;28;20918;-73
2022/09/11 10:16:01;;;;;;;8.00;5.83;;;19.60;99.90;;;;;;5047803;28;20466;-73
2022/09/11 10:18:32;;;;;;;8.50;6.40;;;19.60;99.90;;;;;;5049038;28;20461;-73
2022/09/11 10:21:20;;;;;;;7.33;6.13;;;19.70;99.90;;;;;;5045400;28;20454;-73
2022/09/11 10:23:50;;;;;;;10.53;7.60;;;19.80;99.90;;;;;;5040463;28;20473;-72
2022/09/11 10:26:22;;;;;;;9.03;6.50;;;19.80;99.90;;;;;;5048357;28;20965;-72
2022/09/11 10:28:48;;;;;;;8.73;5.87;;;19.90;99.90;;;;;;5048137;28;20466;-71
2022/09/11 10:31:15;;;;;;;8.57;7.07;;;20.00;99.90;;;;;;5065322;28;20608;-74
2022/09/11 10:33:55;;;;;;;6.93;6.23;;;20.00;99.90;;;;;;5045412;28;20446;-72
2022/09/11 10:36:27;;;;;;;12.07;7.33;;;20.10;99.90;;;;;;5047565;28;20450;-72
2022/09/11 10:38:56;;;;;;;6.47;5.83;;;20.20;99.90;;;;;;5030004;28;20470;-73
2022/09/11 10:41:25;;;;;;;6.27;5.30;;;20.20;99.90;;;;;;5064669;28;20446;-72
2022/09/11 10:44:00;;;;;;;8.50;6.17;;;20.20;99.90;;;;;;5039866;28;20853;-72
2022/09/11 10:46:35;;;;;;;6.67;6.00;;;20.30;99.90;;;;;;5042390;28;20459;-73
2022/09/11 10:49:04;;;;;;;5.90;5.20;;;20.40;99.90;;;;;;5046031;28;20461;-71
2022/09/11 10:51:32;;;;;;;5.33;4.80;;;20.50;99.90;;;;;;5042474;28;20453;-71
2022/09/11 10:54:32;;;;;;;5.40;4.90;;;20.60;99.90;;;;;;5038485;28;20471;-71
2022/09/11 10:57:04;;;;;;;5.57;5.00;;;20.60;99.90;;;;;;5035976;28;20520;-72
2022/09/11 10:59:40;;;;;;;7.13;5.20;;;20.70;99.90;;;;;;5041747;28;20455;-72
2022/09/11 11:02:37;;;;;;;6.10;5.47;;;20.70;99.90;;;;;;5042805;28;20437;-71
2022/09/11 11:05:19;;;;;;;8.30;5.60;;;20.90;99.90;;;;;;5026610;28;20451;-71
2022/09/11 11:08:11;;;;;;;6.20;5.60;;;21.10;99.90;;;;;;5039525;28;20454;-71
2022/09/11 11:11:09;;;;;;;7.80;5.90;;;21.30;99.90;;;;;;5039413;28;20450;-71
2022/09/11 11:13:59;;;;;;;6.40;5.53;;;21.10;99.90;;;;;;5046028;28;20449;-72
2022/09/11 11:17:09;;;;;;;6.30;4.27;;;21.00;99.90;;;;;;5042325;28;20526;-72
2022/09/11 11:19:48;;;;;;;5.47;4.97;;;21.20;99.90;;;;;;5045603;28;20465;-71
2022/09/11 11:22:38;;;;;;;5.20;4.73;;;21.30;99.90;;;;;;5038958;28;20510;-71
2022/09/11 11:25:28;;;;;;;5.90;4.40;;;21.50;99.90;;;;;;5028242;28;20437;-72
2022/09/11 11:28:24;;;;;;;5.50;4.83;;;21.40;99.90;;;;;;5042683;28;20957;-72
2022/09/11 11:30:58;;;;;;;5.33;4.83;;;21.30;99.90;;;;;;5032436;28;21044;-71
2022/09/11 11:34:02;;;;;;;4.93;4.43;;;21.50;99.90;;;;;;5045030;28;20442;-73
2022/09/11 11:36:33;;;;;;;5.10;4.60;;;21.70;99.90;;;;;;5044924;28;20520;-72
2022/09/11 11:39:13;;;;;;;4.70;4.30;;;21.90;99.90;;;;;;5044350;28;20462;-71
2022/09/11 11:41:45;;;;;;;4.90;4.43;;;22.00;99.90;;;;;;5028816;28;20461;-72
2022/09/11 11:44:17;;;;;;;5.57;5.07;;;22.10;99.90;;;;;;5042458;28;20457;-71
2022/09/11 11:46:50;;;;;;;5.40;4.93;;;22.20;99.90;;;;;;5040174;28;20454;-72
2022/09/11 11:49:40;;;;;;;5.37;4.47;;;22.10;99.90;;;;;;5042147;28;20458;-71
2022/09/11 11:52:18;;;;;;;4.70;4.07;;;22.00;99.90;;;;;;5029758;28;20455;-72
2022/09/11 11:55:22;;;;;;;4.83;4.33;;;22.00;99.90;;;;;;5029560;28;20471;-72
2022/09/11 11:58:09;;;;;;;4.60;4.20;;;22.10;99.90;;;;;;5031473;28;20458;-71
2022/09/11 12:00:44;;;;;;;4.37;3.97;;;22.20;99.90;;;;;;5041771;28;20466;-71
2022/09/11 12:03:22;;;;;;;4.50;4.10;;;22.10;99.90;;;;;;5059650;28;20988;-71
2022/09/11 12:05:48;;;;;;;5.53;4.87;;;22.20;99.90;;;;;;5025261;28;20854;-72
2022/09/11 12:08:15;;;;;;;5.23;4.73;;;22.00;99.90;;;;;;5026065;28;20443;-71
2022/09/11 12:11:03;;;;;;;6.07;4.70;;;22.10;99.90;;;;;;5030299;28;21070;-71
2022/09/11 12:13:39;;;;;;;4.53;4.00;;;22.30;99.90;;;;;;5036280;28;20460;-70
2022/09/11 12:16:18;;;;;;;4.73;4.33;;;22.50;99.90;;;;;;5043389;28;20437;-70
2022/09/11 12:19:13;;;;;;;7.30;4.80;;;22.70;99.90;;;;;;5053457;28;20462;-72
2022/09/11 12:21:51;;;;;;;5.67;5.10;;;22.90;99.90;;;;;;5037274;28;20443;-71
2022/09/11 12:24:20;;;;;;;4.70;4.30;;;23.00;99.90;;;;;;5040867;28;20446;-70
2022/09/11 12:26:45;;;;;;;4.90;4.47;;;23.10;99.90;;;;;;5045069;28;20501;-70
2022/09/11 12:29:12;;;;;;;4.73;4.33;;;23.10;99.90;;;;;;5051761;28;20547;-71
2022/09/11 12:32:21;;;;;;;4.80;4.33;;;23.20;99.90;;;;;;5043523;28;20211;-71
2022/09/11 12:34:52;;;;;;;4.60;4.20;;;23.30;99.90;;;;;;5034889;28;20493;-71
2022/09/11 12:37:34;;;;;;;4.50;4.10;;;23.30;99.90;;;;;;5037259;28;20975;-72
2022/09/11 12:40:15;;;;;;;4.80;4.37;;;23.50;99.90;;;;;;5044388;28;20823;-71
2022/09/11 12:42:41;;;;;;;5.63;4.70;;;23.60;99.90;;;;;;5058846;28;20998;-71
2022/09/11 12:45:33;;;;;;;5.33;4.40;;;23.70;99.90;;;;;;5045006;28;20454;-71
2022/09/11 12:48:08;;;;;;;4.40;4.10;;;23.80;99.90;;;;;;5032482;28;20703;-70
2022/09/11 12:50:34;;;;;;;4.43;4.03;;;23.90;99.90;;;;;;5045213;28;20599;-72
2022/09/11 12:53:03;;;;;;;4.87;4.30;;;24.00;99.90;;;;;;5040542;28;20461;-71
2022/09/11 12:55:42;;;;;;;4.10;3.80;;;24.00;99.90;;;;;;5040133;28;20493;-71
2022/09/11 12:58:29;;;;;;;5.30;4.77;;;24.00;99.90;;;;;;5043769;28;21060;-70
2022/09/11 13:01:13;;;;;;;6.13;5.07;;;24.00;99.90;;;;;;5040469;28;20493;-71
2022/09/11 13:03:55;;;;;;;5.30;4.80;;;24.10;99.90;;;;;;5047578;28;20537;-71
2022/09/11 13:06:21;;;;;;;4.80;4.30;;;24.20;99.90;;;;;;5039024;28;20895;-71
2022/09/11 13:09:00;;;;;;;4.60;4.20;;;24.30;99.90;;;;;;5043166;28;20786;-71
2022/09/11 13:11:50;;;;;;;5.20;4.70;;;24.30;99.90;;;;;;5038560;28;20854;-70
2022/09/11 13:14:28;;;;;;;5.13;4.73;;;24.40;99.90;;;;;;5029265;28;20470;-70
2022/09/11 13:16:59;;;;;;;4.90;4.50;;;24.40;99.90;;;;;;5039840;28;20458;-71